sensor_id;sensor_type;location;lat;lon;timestamp;pressure;altitude;pressure_sealevel;temperature;humidity
29215;BME280;16252;49.816;7.964;2023-06-26T00:00:11;99888.63;;;24.97;37.28
29215;BME280;16252;49.816;7.964;2023-06-26T00:02:37;99883.78;;;24.92;37.44
29215;BME280;16252;49.816;7.964;2023-06-26T00:05:02;99868.88;;;24.81;37.28
29215;BME280;16252;49.816;7.964;2023-06-26T00:07:28;99869.72;;;24.82;36.97
29215;BME280;16252;49.816;7.964;2023-06-26T00:09:54;99892.19;;;24.91;37.29
29215;BME280;16252;49.816;7.964;2023-06-26T00:12:20;99890.09;;;24.86;37.13
29215;BME280;16252;49.816;7.964;2023-06-26T00:14:45;99867.81;;;24.76;37.46
29215;BME280;16252;49.816;7.964;2023-06-26T00:17:11;99863.00;;;24.64;37.01
29215;BME280;16252;49.816;7.964;2023-06-26T00:19:36;99867.19;;;24.67;37.30
29215;BME280;16252;49.816;7.964;2023-06-26T00:22:02;99864.69;;;24.59;37.24
29215;BME280;16252;49.816;7.964;2023-06-26T00:24:27;99868.69;;;24.56;37.27
29215;BME280;16252;49.816;7.964;2023-06-26T00:26:52;99831.22;;;24.30;37.26
29215;BME280;16252;49.816;7.964;2023-06-26T00:29:17;99861.09;;;24.45;37.46
29215;BME280;16252;49.816;7.964;2023-06-26T00:31:43;99861.50;;;24.42;37.77
29215;BME280;16252;49.816;7.964;2023-06-26T00:34:08;99844.47;;;24.27;38.04
29215;BME280;16252;49.816;7.964;2023-06-26T00:39:10;99832.69;;;24.13;37.99
29215;BME280;16252;49.816;7.964;2023-06-26T00:41:36;99828.06;;;24.07;37.95
29215;BME280;16252;49.816;7.964;2023-06-26T00:44:02;99862.34;;;24.22;38.10
29215;BME280;16252;49.816;7.964;2023-06-26T00:46:27;99846.16;;;24.14;38.01
29215;BME280;16252;49.816;7.964;2023-06-26T00:48:52;99778.81;;;23.67;38.02
29215;BME280;16252;49.816;7.964;2023-06-26T00:51:19;99712.38;;;23.20;38.51
29215;BME280;16252;49.816;7.964;2023-06-26T00:53:44;99713.81;;;23.15;38.18
29215;BME280;16252;49.816;7.964;2023-06-26T00:56:10;99829.94;;;23.86;38.22
29215;BME280;16252;49.816;7.964;2023-06-26T00:58:36;99766.56;;;23.36;38.18
29215;BME280;16252;49.816;7.964;2023-06-26T01:01:01;99715.03;;;23.00;38.29
29215;BME280;16252;49.816;7.964;2023-06-26T01:03:27;99766.13;;;23.26;38.53
29215;BME280;16252;49.816;7.964;2023-06-26T01:05:54;99870.91;;;23.86;38.27
29215;BME280;16252;49.816;7.964;2023-06-26T01:08:22;99786.06;;;23.26;38.60
29215;BME280;16252;49.816;7.964;2023-06-26T01:10:47;99864.78;;;23.77;38.77
29215;BME280;16252;49.816;7.964;2023-06-26T01:13:14;99845.38;;;23.59;38.85
29215;BME280;16252;49.816;7.964;2023-06-26T01:15:40;99848.13;;;23.59;38.92
29215;BME280;16252;49.816;7.964;2023-06-26T01:18:05;99855.91;;;23.62;39.03
29215;BME280;16252;49.816;7.964;2023-06-26T01:20:32;99837.38;;;23.51;39.02
29215;BME280;16252;49.816;7.964;2023-06-26T01:25:41;99814.25;;;23.47;39.00
29215;BME280;16252;49.816;7.964;2023-06-26T01:28:13;99799.94;;;23.31;39.11
29215;BME280;16252;49.816;7.964;2023-06-26T01:30:42;99849.81;;;23.67;38.96
29215;BME280;16252;49.816;7.964;2023-06-26T01:33:08;99745.44;;;22.97;39.36
29215;BME280;16252;49.816;7.964;2023-06-26T01:35:34;99694.31;;;22.64;39.06
29215;BME280;16252;49.816;7.964;2023-06-26T01:38:32;99823.53;;;23.59;38.40
29215;BME280;16252;49.816;7.964;2023-06-26T01:40:57;99812.13;;;23.35;39.00
29215;BME280;16252;49.816;7.964;2023-06-26T01:43:40;99843.50;;;23.53;38.93
29215;BME280;16252;49.816;7.964;2023-06-26T01:46:11;99841.78;;;23.45;39.33
29215;BME280;16252;49.816;7.964;2023-06-26T01:48:49;99807.25;;;23.24;38.94
29215;BME280;16252;49.816;7.964;2023-06-26T01:51:17;99815.44;;;23.24;39.49
29215;BME280;16252;49.816;7.964;2023-06-26T01:53:51;99794.84;;;23.15;39.52
29215;BME280;16252;49.816;7.964;2023-06-26T01:56:19;99696.75;;;22.52;39.19
29215;BME280;16252;49.816;7.964;2023-06-26T01:58:46;99809.97;;;23.18;39.34
29215;BME280;16252;49.816;7.964;2023-06-26T02:01:12;99845.31;;;23.32;39.50
29215;BME280;16252;49.816;7.964;2023-06-26T02:03:37;99823.16;;;23.14;39.59
29215;BME280;16252;49.816;7.964;2023-06-26T02:06:03;99842.31;;;23.21;39.65
29215;BME280;16252;49.816;7.964;2023-06-26T02:08:28;99847.13;;;23.19;39.49
29215;BME280;16252;49.816;7.964;2023-06-26T02:10:53;99835.09;;;23.06;39.25
29215;BME280;16252;49.816;7.964;2023-06-26T02:13:18;99833.63;;;23.04;39.70
29215;BME280;16252;49.816;7.964;2023-06-26T02:15:44;99841.56;;;22.99;39.87
29215;BME280;16252;49.816;7.964;2023-06-26T02:18:09;99838.56;;;22.87;39.82
29215;BME280;16252;49.816;7.964;2023-06-26T02:20:35;99718.06;;;22.07;39.88
29215;BME280;16252;49.816;7.964;2023-06-26T02:23:01;99858.91;;;22.84;40.12
29215;BME280;16252;49.816;7.964;2023-06-26T02:25:26;99841.41;;;22.72;40.11
29215;BME280;16252;49.816;7.964;2023-06-26T02:27:51;99833.97;;;22.59;40.21
29215;BME280;16252;49.816;7.964;2023-06-26T02:30:16;99816.91;;;22.50;40.32
29215;BME280;16252;49.816;7.964;2023-06-26T02:32:42;99801.88;;;22.33;40.46
29215;BME280;16252;49.816;7.964;2023-06-26T02:35:07;99822.75;;;22.47;40.37
29215;BME280;16252;49.816;7.964;2023-06-26T02:37:33;99825.91;;;22.44;40.47
29215;BME280;16252;49.816;7.964;2023-06-26T02:39:58;99851.59;;;22.63;40.44
29215;BME280;16252;49.816;7.964;2023-06-26T02:42:23;99790.50;;;22.23;40.60
29215;BME280;16252;49.816;7.964;2023-06-26T02:44:48;99842.09;;;22.53;40.27
29215;BME280;16252;49.816;7.964;2023-06-26T02:47:14;99816.81;;;22.37;40.70
29215;BME280;16252;49.816;7.964;2023-06-26T02:49:39;99815.34;;;22.35;40.76
29215;BME280;16252;49.816;7.964;2023-06-26T02:52:04;99759.22;;;21.91;40.73
29215;BME280;16252;49.816;7.964;2023-06-26T02:54:29;99790.59;;;22.08;40.75
29215;BME280;16252;49.816;7.964;2023-06-26T02:56:55;99831.00;;;22.26;40.87
29215;BME280;16252;49.816;7.964;2023-06-26T02:59:20;99840.25;;;22.32;40.80
29215;BME280;16252;49.816;7.964;2023-06-26T03:01:45;99694.88;;;21.40;41.14
29215;BME280;16252;49.816;7.964;2023-06-26T03:04:11;99825.84;;;22.16;41.24
29215;BME280;16252;49.816;7.964;2023-06-26T03:06:36;99834.44;;;22.13;41.14
29215;BME280;16252;49.816;7.964;2023-06-26T03:09:01;99835.25;;;22.14;41.18
29215;BME280;16252;49.816;7.964;2023-06-26T03:11:27;99857.13;;;22.20;41.08
29215;BME280;16252;49.816;7.964;2023-06-26T03:13:53;99827.59;;;22.02;41.41
29215;BME280;16252;49.816;7.964;2023-06-26T03:16:18;99847.41;;;22.11;41.54
29215;BME280;16252;49.816;7.964;2023-06-26T03:18:43;99813.03;;;21.89;41.51
29215;BME280;16252;49.816;7.964;2023-06-26T03:21:08;99806.69;;;21.81;41.59
29215;BME280;16252;49.816;7.964;2023-06-26T03:23:34;99749.31;;;21.40;41.61
29215;BME280;16252;49.816;7.964;2023-06-26T03:25:59;99817.56;;;21.81;41.59
29215;BME280;16252;49.816;7.964;2023-06-26T03:28:24;99807.38;;;21.69;41.63
29215;BME280;16252;49.816;7.964;2023-06-26T03:30:50;99804.66;;;21.69;41.62
29215;BME280;16252;49.816;7.964;2023-06-26T03:33:15;99847.03;;;21.93;41.78
29215;BME280;16252;49.816;7.964;2023-06-26T03:35:40;99819.63;;;21.79;41.77
29215;BME280;16252;49.816;7.964;2023-06-26T03:38:06;99793.91;;;21.60;41.70
29215;BME280;16252;49.816;7.964;2023-06-26T03:40:31;99831.75;;;21.77;41.58
29215;BME280;16252;49.816;7.964;2023-06-26T03:42:56;99823.34;;;21.72;41.74
29215;BME280;16252;49.816;7.964;2023-06-26T03:45:21;99776.53;;;21.40;41.67
29215;BME280;16252;49.816;7.964;2023-06-26T03:47:47;99825.88;;;21.73;42.08
29215;BME280;16252;49.816;7.964;2023-06-26T03:50:17;99778.19;;;21.41;42.28
29215;BME280;16252;49.816;7.964;2023-06-26T03:52:44;99828.72;;;21.65;41.96
29215;BME280;16252;49.816;7.964;2023-06-26T03:55:10;99835.00;;;21.66;42.21
29215;BME280;16252;49.816;7.964;2023-06-26T03:57:35;99836.03;;;21.64;42.33
29215;BME280;16252;49.816;7.964;2023-06-26T04:00:01;99769.22;;;21.26;42.32
29215;BME280;16252;49.816;7.964;2023-06-26T04:02:26;99811.88;;;21.55;42.39
29215;BME280;16252;49.816;7.964;2023-06-26T04:04:51;99799.22;;;21.47;42.52
29215;BME280;16252;49.816;7.964;2023-06-26T04:07:17;99830.41;;;21.66;42.54
29215;BME280;16252;49.816;7.964;2023-06-26T04:09:42;99798.34;;;21.47;42.35
29215;BME280;16252;49.816;7.964;2023-06-26T04:12:08;99814.47;;;21.63;42.54
29215;BME280;16252;49.816;7.964;2023-06-26T04:14:33;99819.44;;;21.59;42.67
29215;BME280;16252;49.816;7.964;2023-06-26T04:16:59;99790.00;;;21.48;42.76
29215;BME280;16252;49.816;7.964;2023-06-26T04:19:26;99826.72;;;21.74;42.57
29215;BME280;16252;49.816;7.964;2023-06-26T04:21:52;99801.44;;;21.58;42.42
29215;BME280;16252;49.816;7.964;2023-06-26T04:24:17;99820.59;;;21.72;42.53
29215;BME280;16252;49.816;7.964;2023-06-26T04:26:42;99815.81;;;21.74;42.80
29215;BME280;16252;49.816;7.964;2023-06-26T04:29:07;99831.63;;;21.85;42.93
29215;BME280;16252;49.816;7.964;2023-06-26T04:31:33;99736.16;;;21.29;42.81
29215;BME280;16252;49.816;7.964;2023-06-26T04:33:58;99693.28;;;21.09;42.98
29215;BME280;16252;49.816;7.964;2023-06-26T04:36:24;99813.19;;;21.80;42.71
29215;BME280;16252;49.816;7.964;2023-06-26T04:38:54;99730.44;;;21.38;42.74
29215;BME280;16252;49.816;7.964;2023-06-26T04:41:19;99819.13;;;21.91;42.87
29215;BME280;16252;49.816;7.964;2023-06-26T04:43:44;99717.38;;;21.34;42.54
29215;BME280;16252;49.816;7.964;2023-06-26T04:46:09;99818.16;;;21.98;42.82
29215;BME280;16252;49.816;7.964;2023-06-26T04:48:35;99811.63;;;21.93;42.73
29215;BME280;16252;49.816;7.964;2023-06-26T04:51:00;99805.13;;;21.94;43.21
29215;BME280;16252;49.816;7.964;2023-06-26T04:53:25;99798.19;;;21.91;43.46
29215;BME280;16252;49.816;7.964;2023-06-26T04:55:51;99820.91;;;22.05;43.47
29215;BME280;16252;49.816;7.964;2023-06-26T04:58:18;99831.63;;;22.06;43.51
29215;BME280;16252;49.816;7.964;2023-06-26T05:00:43;99852.16;;;22.24;43.52
29215;BME280;16252;49.816;7.964;2023-06-26T05:03:13;99843.38;;;22.28;43.27
29215;BME280;16252;49.816;7.964;2023-06-26T05:05:38;99837.28;;;22.55;41.42
29215;BME280;16252;49.816;7.964;2023-06-26T05:08:18;99812.53;;;22.28;42.77
29215;BME280;16252;49.816;7.964;2023-06-26T05:10:44;99818.41;;;22.25;43.21
29215;BME280;16252;49.816;7.964;2023-06-26T05:13:10;99797.38;;;22.19;43.18
29215;BME280;16252;49.816;7.964;2023-06-26T05:15:35;99843.75;;;22.47;43.30
29215;BME280;16252;49.816;7.964;2023-06-26T05:18:00;99820.44;;;22.44;43.16
29215;BME280;16252;49.816;7.964;2023-06-26T05:20:25;99830.41;;;22.59;43.79
29215;BME280;16252;49.816;7.964;2023-06-26T05:22:51;99835.94;;;22.72;43.53
29215;BME280;16252;49.816;7.964;2023-06-26T05:25:18;99773.66;;;22.41;43.53
29215;BME280;16252;49.816;7.964;2023-06-26T05:27:43;99848.25;;;22.96;43.84
29215;BME280;16252;49.816;7.964;2023-06-26T05:30:12;99829.81;;;22.98;43.90
29215;BME280;16252;49.816;7.964;2023-06-26T05:32:40;99826.91;;;23.06;43.85
29215;BME280;16252;49.816;7.964;2023-06-26T05:35:06;99820.59;;;22.99;43.67
29215;BME280;16252;49.816;7.964;2023-06-26T05:37:33;99829.03;;;23.11;43.56
29215;BME280;16252;49.816;7.964;2023-06-26T05:39:59;99816.88;;;23.07;43.70
29215;BME280;16252;49.816;7.964;2023-06-26T05:42:25;99817.09;;;23.12;43.48
29215;BME280;16252;49.816;7.964;2023-06-26T05:44:50;99834.53;;;23.24;43.57
29215;BME280;16252;49.816;7.964;2023-06-26T05:47:16;99757.75;;;22.86;43.61
29215;BME280;16252;49.816;7.964;2023-06-26T05:49:41;99831.06;;;23.37;43.55
29215;BME280;16252;49.816;7.964;2023-06-26T05:52:07;99820.09;;;23.30;43.50
29215;BME280;16252;49.816;7.964;2023-06-26T05:54:32;99815.66;;;23.29;43.42
29215;BME280;16252;49.816;7.964;2023-06-26T05:56:58;99821.38;;;23.41;42.96
29215;BME280;16252;49.816;7.964;2023-06-26T05:59:24;99760.38;;;23.01;43.17
29215;BME280;16252;49.816;7.964;2023-06-26T06:01:51;99817.63;;;23.49;43.07
29215;BME280;16252;49.816;7.964;2023-06-26T06:04:16;99838.91;;;23.67;43.06
29215;BME280;16252;49.816;7.964;2023-06-26T06:06:42;99822.94;;;23.64;43.10
29215;BME280;16252;49.816;7.964;2023-06-26T06:09:07;99785.09;;;23.47;43.08
29215;BME280;16252;49.816;7.964;2023-06-26T06:11:32;99810.31;;;23.69;42.75
29215;BME280;16252;49.816;7.964;2023-06-26T06:13:57;99833.09;;;23.90;42.87
29215;BME280;16252;49.816;7.964;2023-06-26T06:16:24;99777.75;;;23.61;43.01
29215;BME280;16252;49.816;7.964;2023-06-26T06:18:49;99809.56;;;23.89;42.84
29215;BME280;16252;49.816;7.964;2023-06-26T06:21:15;99788.53;;;23.83;42.78
29215;BME280;16252;49.816;7.964;2023-06-26T06:23:40;99800.50;;;23.95;42.53
29215;BME280;16252;49.816;7.964;2023-06-26T06:26:05;99803.25;;;24.01;42.86
29215;BME280;16252;49.816;7.964;2023-06-26T06:28:30;99803.88;;;24.10;42.68
29215;BME280;16252;49.816;7.964;2023-06-26T06:30:56;99741.03;;;23.77;42.74
29215;BME280;16252;49.816;7.964;2023-06-26T06:33:21;99817.13;;;24.27;42.62
29215;BME280;16252;49.816;7.964;2023-06-26T06:35:46;99789.81;;;24.13;42.36
29215;BME280;16252;49.816;7.964;2023-06-26T06:38:11;99816.09;;;24.41;42.51
29215;BME280;16252;49.816;7.964;2023-06-26T06:40:37;99814.63;;;24.45;42.27
29215;BME280;16252;49.816;7.964;2023-06-26T06:43:02;99815.25;;;24.54;42.27
29215;BME280;16252;49.816;7.964;2023-06-26T06:45:27;99810.41;;;24.62;42.15
29215;BME280;16252;49.816;7.964;2023-06-26T06:47:52;99815.81;;;24.76;42.51
29215;BME280;16252;49.816;7.964;2023-06-26T06:50:18;99820.47;;;24.82;42.01
29215;BME280;16252;49.816;7.964;2023-06-26T06:52:43;99832.44;;;24.94;42.03
29215;BME280;16252;49.816;7.964;2023-06-26T06:55:09;99829.22;;;25.04;42.59
29215;BME280;16252;49.816;7.964;2023-06-26T06:57:38;99834.25;;;25.20;42.20
29215;BME280;16252;49.816;7.964;2023-06-26T07:00:05;99832.97;;;25.23;42.06
29215;BME280;16252;49.816;7.964;2023-06-26T07:02:34;99841.31;;;25.41;42.01
29215;BME280;16252;49.816;7.964;2023-06-26T07:05:00;99825.31;;;25.45;42.38
29215;BME280;16252;49.816;7.964;2023-06-26T07:07:28;99856.28;;;25.77;42.68
29215;BME280;16252;49.816;7.964;2023-06-26T07:09:54;99827.59;;;25.86;42.75
29215;BME280;16252;49.816;7.964;2023-06-26T07:12:19;99829.72;;;26.16;42.64
29215;BME280;16252;49.816;7.964;2023-06-26T07:14:45;99839.56;;;26.49;42.41
29215;BME280;16252;49.816;7.964;2023-06-26T07:17:10;99843.06;;;26.81;41.81
29215;BME280;16252;49.816;7.964;2023-06-26T07:19:35;99848.59;;;27.18;41.42
29215;BME280;16252;49.816;7.964;2023-06-26T07:22:00;99845.34;;;27.39;40.97
29215;BME280;16252;49.816;7.964;2023-06-26T07:24:26;99832.34;;;27.65;41.20
29215;BME280;16252;49.816;7.964;2023-06-26T07:26:51;99844.72;;;28.16;40.84
29215;BME280;16252;49.816;7.964;2023-06-26T07:29:16;99854.13;;;28.62;40.34
29215;BME280;16252;49.816;7.964;2023-06-26T07:31:41;99858.53;;;29.10;39.31
29215;BME280;16252;49.816;7.964;2023-06-26T07:34:07;99816.44;;;29.27;38.49
29215;BME280;16252;49.816;7.964;2023-06-26T07:36:32;99843.22;;;29.84;37.47
29215;BME280;16252;49.816;7.964;2023-06-26T07:38:57;99841.28;;;30.30;37.50
29215;BME280;16252;49.816;7.964;2023-06-26T07:41:22;99850.88;;;30.78;36.38
29215;BME280;16252;49.816;7.964;2023-06-26T07:43:48;99857.81;;;31.19;35.93
29215;BME280;16252;49.816;7.964;2023-06-26T07:46:13;99852.84;;;31.38;35.24
29215;BME280;16252;49.816;7.964;2023-06-26T07:48:38;99855.97;;;31.47;35.00
29215;BME280;16252;49.816;7.964;2023-06-26T07:51:04;99861.47;;;31.69;34.49
29215;BME280;16252;49.816;7.964;2023-06-26T07:53:29;99862.53;;;31.90;34.14
29215;BME280;16252;49.816;7.964;2023-06-26T07:55:54;99862.66;;;32.00;33.71
29215;BME280;16252;49.816;7.964;2023-06-26T07:58:19;99874.69;;;32.11;33.75
29215;BME280;16252;49.816;7.964;2023-06-26T08:00:45;99860.16;;;31.99;33.56
29215;BME280;16252;49.816;7.964;2023-06-26T08:03:10;99869.59;;;32.03;33.25
29215;BME280;16252;49.816;7.964;2023-06-26T08:05:35;99848.34;;;31.81;33.28
29215;BME280;16252;49.816;7.964;2023-06-26T08:08:00;99868.53;;;31.82;33.55
29215;BME280;16252;49.816;7.964;2023-06-26T08:10:27;99870.94;;;31.73;33.85
29215;BME280;16252;49.816;7.964;2023-06-26T08:12:53;99860.66;;;31.68;33.85
29215;BME280;16252;49.816;7.964;2023-06-26T08:15:18;99879.06;;;31.85;33.89
29215;BME280;16252;49.816;7.964;2023-06-26T08:17:43;99882.88;;;32.01;33.92
29215;BME280;16252;49.816;7.964;2023-06-26T08:20:09;99891.97;;;32.28;34.24
29215;BME280;16252;49.816;7.964;2023-06-26T08:22:35;99874.25;;;32.56;33.95
29215;BME280;16252;49.816;7.964;2023-06-26T08:25:02;99871.53;;;33.04;33.64
29215;BME280;16252;49.816;7.964;2023-06-26T08:27:27;99890.09;;;33.56;33.11
29215;BME280;16252;49.816;7.964;2023-06-26T08:29:53;99854.34;;;33.75;32.74
29215;BME280;16252;49.816;7.964;2023-06-26T08:32:18;99887.78;;;34.26;32.54
29215;BME280;16252;49.816;7.964;2023-06-26T08:34:43;99850.28;;;34.55;32.42
29215;BME280;16252;49.816;7.964;2023-06-26T08:37:09;99869.09;;;35.09;31.65
29215;BME280;16252;49.816;7.964;2023-06-26T08:39:34;99873.03;;;35.68;31.42
29215;BME280;16252;49.816;7.964;2023-06-26T08:42:00;99856.00;;;36.24;30.49
29215;BME280;16252;49.816;7.964;2023-06-26T08:44:25;99878.19;;;36.98;29.73
29215;BME280;16252;49.816;7.964;2023-06-26T08:46:51;99877.00;;;37.52;29.15
29215;BME280;16252;49.816;7.964;2023-06-26T08:52:22;99878.03;;;38.84;29.03
29215;BME280;16252;49.816;7.964;2023-06-26T08:54:52;99882.06;;;39.38;27.48
29215;BME280;16252;49.816;7.964;2023-06-26T08:57:20;99891.94;;;39.85;26.97
29215;BME280;16252;49.816;7.964;2023-06-26T08:59:47;99894.84;;;40.17;25.92
29215;BME280;16252;49.816;7.964;2023-06-26T09:02:12;99903.91;;;40.36;25.71
29215;BME280;16252;49.816;7.964;2023-06-26T09:04:39;99896.84;;;40.39;25.29
29215;BME280;16252;49.816;7.964;2023-06-26T09:07:05;99911.19;;;40.37;24.72
29215;BME280;16252;49.816;7.964;2023-06-26T09:09:30;99894.47;;;40.09;24.71
29215;BME280;16252;49.816;7.964;2023-06-26T09:11:55;99894.44;;;39.73;24.37
29215;BME280;16252;49.816;7.964;2023-06-26T09:14:21;99906.09;;;39.39;24.95
29215;BME280;16252;49.816;7.964;2023-06-26T09:16:46;99910.00;;;39.10;24.93
29215;BME280;16252;49.816;7.964;2023-06-26T09:19:12;99903.84;;;38.94;25.12
29215;BME280;16252;49.816;7.964;2023-06-26T09:21:39;99893.16;;;38.83;25.53
29215;BME280;16252;49.816;7.964;2023-06-26T09:24:06;99891.13;;;39.02;25.60
29215;BME280;16252;49.816;7.964;2023-06-26T09:26:31;99895.06;;;39.29;24.80
29215;BME280;16252;49.816;7.964;2023-06-26T09:28:57;99898.19;;;39.55;24.69
29215;BME280;16252;49.816;7.964;2023-06-26T09:31:23;99906.56;;;39.82;24.75
29215;BME280;16252;49.816;7.964;2023-06-26T09:33:55;99908.72;;;39.99;24.43
29215;BME280;16252;49.816;7.964;2023-06-26T09:36:22;99915.94;;;40.14;23.99
29215;BME280;16252;49.816;7.964;2023-06-26T09:38:48;99909.50;;;40.14;23.58
29215;BME280;16252;49.816;7.964;2023-06-26T09:41:17;99920.59;;;40.19;23.95
29215;BME280;16252;49.816;7.964;2023-06-26T09:43:49;99905.16;;;40.07;24.19
29215;BME280;16252;49.816;7.964;2023-06-26T09:46:28;99908.72;;;39.99;24.07
29215;BME280;16252;49.816;7.964;2023-06-26T09:49:07;99926.31;;;40.14;24.28
29215;BME280;16252;49.816;7.964;2023-06-26T09:51:34;99913.69;;;40.02;24.14
29215;BME280;16252;49.816;7.964;2023-06-26T09:54:03;99915.53;;;40.07;24.15
29215;BME280;16252;49.816;7.964;2023-06-26T09:56:30;99928.25;;;40.13;23.67
29215;BME280;16252;49.816;7.964;2023-06-26T09:58:57;99912.44;;;40.08;23.34
29215;BME280;16252;49.816;7.964;2023-06-26T10:01:26;99920.59;;;40.19;23.21
29215;BME280;16252;49.816;7.964;2023-06-26T10:03:51;99933.81;;;40.04;22.84
29215;BME280;16252;49.816;7.964;2023-06-26T10:06:26;99910.72;;;39.85;23.08
29215;BME280;16252;49.816;7.964;2023-06-26T10:08:53;99905.75;;;39.54;23.00
29215;BME280;16252;49.816;7.964;2023-06-26T10:11:21;99910.25;;;39.41;23.22
29215;BME280;16252;49.816;7.964;2023-06-26T10:13:50;99922.34;;;39.37;23.25
29215;BME280;16252;49.816;7.964;2023-06-26T10:16:22;99911.44;;;39.21;23.23
29215;BME280;16252;49.816;7.964;2023-06-26T10:18:52;99919.84;;;39.08;23.30
29215;BME280;16252;49.816;7.964;2023-06-26T10:21:20;99924.94;;;38.87;23.28
29215;BME280;16252;49.816;7.964;2023-06-26T10:23:46;99903.13;;;38.56;23.38
29215;BME280;16252;49.816;7.964;2023-06-26T10:26:13;99905.06;;;38.23;23.49
29215;BME280;16252;49.816;7.964;2023-06-26T10:28:40;99900.19;;;37.90;23.43
29215;BME280;16252;49.816;7.964;2023-06-26T10:31:09;99885.03;;;37.59;23.73
29215;BME280;16252;49.816;7.964;2023-06-26T10:33:35;99894.75;;;37.37;24.33
29215;BME280;16252;49.816;7.964;2023-06-26T10:36:17;99904.09;;;37.27;24.32
29215;BME280;16252;49.816;7.964;2023-06-26T10:38:58;99906.25;;;37.06;24.55
29215;BME280;16252;49.816;7.964;2023-06-26T10:41:24;99887.03;;;36.76;24.30
29215;BME280;16252;49.816;7.964;2023-06-26T10:46:24;99885.69;;;36.39;24.63
29215;BME280;16252;49.816;7.964;2023-06-26T10:49:00;99902.41;;;36.39;24.70
29215;BME280;16252;49.816;7.964;2023-06-26T10:51:29;99903.09;;;36.20;24.92
29215;BME280;16252;49.816;7.964;2023-06-26T10:53:56;99908.19;;;36.03;24.61
29215;BME280;16252;49.816;7.964;2023-06-26T10:56:21;99886.31;;;35.86;24.64
29215;BME280;16252;49.816;7.964;2023-06-26T10:59:31;99901.81;;;35.97;25.10
29215;BME280;16252;49.816;7.964;2023-06-26T11:04:37;99898.91;;;35.78;24.75
29215;BME280;16252;49.816;7.964;2023-06-26T11:07:21;99908.00;;;35.89;25.15
29215;BME280;16252;49.816;7.964;2023-06-26T11:12:38;99903.97;;;35.56;24.94
29215;BME280;16252;49.816;7.964;2023-06-26T11:15:15;99914.59;;;35.44;24.81
29215;BME280;16252;49.816;7.964;2023-06-26T11:17:42;99919.66;;;35.31;24.77
29215;BME280;16252;49.816;7.964;2023-06-26T11:20:10;99914.69;;;35.23;25.03
29215;BME280;16252;49.816;7.964;2023-06-26T11:22:38;99888.56;;;35.09;24.57
29215;BME280;16252;49.816;7.964;2023-06-26T11:25:04;99918.03;;;35.15;24.78
29215;BME280;16252;49.816;7.964;2023-06-26T11:30:04;99909.69;;;35.05;25.02
29215;BME280;16252;49.816;7.964;2023-06-26T11:32:30;99911.34;;;35.06;24.45
29215;BME280;16252;49.816;7.964;2023-06-26T11:34:58;99918.56;;;35.02;24.75
29215;BME280;16252;49.816;7.964;2023-06-26T11:37:24;99928.59;;;35.03;24.97
29215;BME280;16252;49.816;7.964;2023-06-26T11:39:49;99919.16;;;34.93;24.51
29215;BME280;16252;49.816;7.964;2023-06-26T11:42:15;99920.28;;;34.98;24.37
29215;BME280;16252;49.816;7.964;2023-06-26T11:44:42;99921.94;;;34.93;24.45
29215;BME280;16252;49.816;7.964;2023-06-26T11:47:12;99921.94;;;34.93;24.62
29215;BME280;16252;49.816;7.964;2023-06-26T11:49:37;99940.28;;;34.94;24.71
29215;BME280;16252;49.816;7.964;2023-06-26T11:52:03;99934.19;;;34.92;24.38
29215;BME280;16252;49.816;7.964;2023-06-26T11:54:28;99925.28;;;34.90;24.25
29215;BME280;16252;49.816;7.964;2023-06-26T11:56:55;99936.66;;;34.94;24.26
29215;BME280;16252;49.816;7.964;2023-06-26T11:59:24;99916.97;;;34.75;24.10
29215;BME280;16252;49.816;7.964;2023-06-26T12:01:50;99944.19;;;34.88;23.93
29215;BME280;16252;49.816;7.964;2023-06-26T12:04:18;99938.06;;;34.91;23.84
29215;BME280;16252;49.816;7.964;2023-06-26T12:06:52;99938.06;;;34.86;24.15
29215;BME280;16252;49.816;7.964;2023-06-26T12:09:22;99959.19;;;34.87;24.33
29215;BME280;16252;49.816;7.964;2023-06-26T12:11:52;99944.19;;;34.83;23.54
29215;BME280;16252;49.816;7.964;2023-06-26T12:14:19;99934.72;;;34.74;23.20
29215;BME280;16252;49.816;7.964;2023-06-26T12:16:45;99945.84;;;34.74;23.33
29215;BME280;16252;49.816;7.964;2023-06-26T12:19:11;99923.63;;;34.69;23.01
29215;BME280;16252;49.816;7.964;2023-06-26T12:24:01;99919.16;;;34.58;24.15
29215;BME280;16252;49.816;7.964;2023-06-26T12:26:28;99944.47;;;34.71;24.35
29215;BME280;16252;49.816;7.964;2023-06-26T12:29:06;99947.25;;;34.66;24.45
29215;BME280;16252;49.816;7.964;2023-06-26T12:31:32;99940.00;;;34.55;24.25
29215;BME280;16252;49.816;7.964;2023-06-26T12:33:57;99934.19;;;34.46;23.88
29215;BME280;16252;49.816;7.964;2023-06-26T12:36:23;99913.88;;;34.20;24.24
29215;BME280;16252;49.816;7.964;2023-06-26T12:38:49;99952.75;;;34.36;23.98
29215;BME280;16252;49.816;7.964;2023-06-26T12:41:15;99928.84;;;34.14;23.56
29215;BME280;16252;49.816;7.964;2023-06-26T12:43:41;99941.91;;;34.14;23.63
29215;BME280;16252;49.816;7.964;2023-06-26T12:46:07;99948.50;;;34.02;23.64
29215;BME280;16252;49.816;7.964;2023-06-26T12:48:37;99952.72;;;34.10;23.88
29215;BME280;16252;49.816;7.964;2023-06-26T12:51:10;99961.59;;;34.07;24.04
29215;BME280;16252;49.816;7.964;2023-06-26T12:53:36;99944.56;;;33.83;23.99
29215;BME280;16252;49.816;7.964;2023-06-26T12:56:04;99923.69;;;33.70;24.19
29215;BME280;16252;49.816;7.964;2023-06-26T12:58:29;99935.38;;;33.72;24.02
29215;BME280;16252;49.816;7.964;2023-06-26T13:00:55;99932.28;;;33.63;24.04
29215;BME280;16252;49.816;7.964;2023-06-26T13:03:22;99937.84;;;33.63;23.66
29215;BME280;16252;49.816;7.964;2023-06-26T13:05:48;99957.88;;;33.76;23.42
29215;BME280;16252;49.816;7.964;2023-06-26T13:08:13;99956.47;;;33.73;23.27
29215;BME280;16252;49.816;7.964;2023-06-26T13:10:45;99921.09;;;33.48;23.00
29215;BME280;16252;49.816;7.964;2023-06-26T13:13:13;99933.56;;;33.45;23.65
29215;BME280;16252;49.816;7.964;2023-06-26T13:15:38;99933.53;;;33.35;23.23
29215;BME280;16252;49.816;7.964;2023-06-26T13:18:03;99934.31;;;33.31;23.19